Time;durP1;ratioP1;P1;durP2;ratioP2;P2;SDS_P1;SDS_P2;PMS_P1;PMS_P2;Temp;Humidity;BMP_temperature;BMP_pressure;BME280_temperature;BME280_humidity;BME280_pressure;Samples;Min_cycle;Max_cycle;Signal;HPM_P1;HPM_P2
2023/10/23 00:00:58;;;;;;;2.10;1.90;;;18.40;73.80;19.40;100492.00;;;;5070654;28;20190;-48
2023/10/23 00:03:24;;;;;;;1.80;1.70;;;18.40;73.80;19.40;100489.00;;;;5070162;28;20876;-49
2023/10/23 00:05:49;;;;;;;1.87;1.77;;;18.40;73.80;19.40;100492.00;;;;5085587;28;20272;-49
2023/10/23 00:08:15;;;;;;;2.10;1.90;;;18.40;73.80;19.40;100498.00;;;;5070004;28;20181;-49
2023/10/23 00:10:44;;;;;;;2.03;1.90;;;18.40;73.80;19.40;100496.00;;;;5068233;28;20758;-49
2023/10/23 00:13:11;;;;;;;1.80;1.70;;;18.40;73.80;19.40;100489.00;;;;5069911;28;20219;-49
2023/10/23 00:15:36;;;;;;;2.07;1.70;;;18.40;73.80;19.40;100506.00;;;;5068297;28;20227;-49
2023/10/23 00:18:02;;;;;;;1.87;1.77;;;18.40;73.80;19.40;100495.00;;;;5069407;28;20178;-49
2023/10/23 00:20:28;;;;;;;2.07;1.87;;;18.40;73.80;19.40;100493.00;;;;5069360;28;20196;-49
2023/10/23 00:22:54;;;;;;;2.30;2.10;;;18.30;73.70;19.40;100500.00;;;;5051440;28;20688;-49
2023/10/23 00:25:20;;;;;;;1.90;1.77;;;18.40;73.80;19.30;100493.00;;;;5068180;28;20184;-49
2023/10/23 00:27:45;;;;;;;2.47;2.00;;;18.30;73.80;19.30;100486.00;;;;5069433;28;20185;-49
2023/10/23 00:30:12;;;;;;;2.17;1.80;;;18.30;73.80;19.30;100483.00;;;;5069197;28;20655;-49
2023/10/23 00:32:37;;;;;;;1.80;1.70;;;18.30;73.80;19.30;100488.00;;;;5069426;28;20206;-49
2023/10/23 00:35:05;;;;;;;1.87;1.70;;;18.30;73.80;19.30;100491.00;;;;5069411;28;20292;-48
2023/10/23 00:37:31;;;;;;;2.70;1.97;;;18.30;73.90;19.30;100489.00;;;;5069449;28;20181;-48
2023/10/23 00:39:56;;;;;;;1.93;1.83;;;18.30;73.90;19.30;100486.00;;;;5068911;28;20185;-47
2023/10/23 00:42:22;;;;;;;2.00;1.80;;;18.30;73.90;19.30;100497.00;;;;5069160;28;20259;-48
2023/10/23 00:44:48;;;;;;;1.70;1.60;;;18.30;73.90;19.30;100499.00;;;;5068927;28;20197;-48
2023/10/23 00:47:16;;;;;;;1.97;1.77;;;18.30;73.90;19.30;100495.00;;;;5067864;28;20217;-48
2023/10/23 00:49:42;;;;;;;1.80;1.70;;;18.30;73.90;19.30;100497.00;;;;5068670;28;20767;-48
2023/10/23 00:52:08;;;;;;;1.90;1.80;;;18.30;73.90;19.30;100500.00;;;;5068714;28;20220;-49
2023/10/23 00:54:34;;;;;;;1.80;1.70;;;18.30;73.90;19.30;100505.00;;;;5067417;28;20209;-49
2023/10/23 00:56:59;;;;;;;1.70;1.60;;;18.20;73.90;19.30;100508.00;;;;5068958;28;20276;-48
2023/10/23 00:59:25;;;;;;;1.90;1.80;;;18.30;74.00;19.30;100509.00;;;;5068832;28;20252;-48
2023/10/23 01:01:51;;;;;;;1.80;1.70;;;18.30;74.00;19.30;100516.00;;;;5067512;28;20301;-48
2023/10/23 01:04:16;;;;;;;1.83;1.73;;;18.20;73.90;19.20;100519.00;;;;5067044;28;20539;-51
2023/10/23 01:06:42;;;;;;;1.90;1.80;;;18.20;73.90;19.30;100505.00;;;;5067613;28;20706;-48
2023/10/23 01:09:08;;;;;;;1.87;1.77;;;18.30;74.10;19.20;100445.00;;;;5068515;28;20227;-48
2023/10/23 01:11:34;;;;;;;1.70;1.60;;;18.30;74.10;19.20;100500.00;;;;5068968;28;20680;-48
2023/10/23 01:14:00;;;;;;;1.80;1.70;;;18.30;74.10;19.20;100506.00;;;;5068713;28;20188;-48
2023/10/23 01:16:25;;;;;;;1.80;1.70;;;18.20;74.10;19.20;100500.00;;;;5070787;28;20206;-48
2023/10/23 01:18:51;;;;;;;1.93;1.70;;;18.20;74.00;19.20;100496.00;;;;5073353;28;20189;-49
2023/10/23 01:21:17;;;;;;;1.90;1.80;;;18.20;74.10;19.20;100504.00;;;;5072564;28;20174;-49
2023/10/23 01:23:43;;;;;;;2.00;1.70;;;18.20;74.10;19.20;100503.00;;;;5068686;28;20189;-48
2023/10/23 01:26:09;;;;;;;2.53;1.80;;;18.20;74.10;19.20;100500.00;;;;5067436;28;20220;-48
2023/10/23 01:28:34;;;;;;;1.73;1.60;;;18.20;74.10;19.20;100497.00;;;;5068596;28;20196;-49
2023/10/23 01:31:00;;;;;;;1.70;1.60;;;18.20;74.10;19.20;100498.00;;;;5068466;28;20731;-48
2023/10/23 01:33:26;;;;;;;1.90;1.80;;;18.20;74.10;19.20;100499.00;;;;5068818;28;20679;-48
2023/10/23 01:35:51;;;;;;;1.70;1.60;;;18.20;74.10;19.20;100498.00;;;;5066669;28;20258;-48
2023/10/23 01:38:18;;;;;;;1.70;1.60;;;18.20;74.10;19.20;100494.00;;;;5063701;28;20197;-49
2023/10/23 01:40:43;;;;;;;1.70;1.60;;;18.20;74.10;19.20;100493.00;;;;5068188;28;20535;-49
2023/10/23 01:43:09;;;;;;;2.10;1.70;;;18.20;74.10;19.20;100491.00;;;;5066919;28;20194;-49
2023/10/23 01:45:35;;;;;;;2.03;1.60;;;18.10;74.00;19.20;100493.00;;;;5068903;28;20201;-49
2023/10/23 01:48:01;;;;;;;1.87;1.70;;;18.20;74.20;19.20;100492.00;;;;5067314;28;20215;-48
2023/10/23 01:50:26;;;;;;;1.70;1.60;;;18.10;74.00;19.10;100477.00;;;;5066484;28;20200;-50
2023/10/23 01:52:52;;;;;;;2.23;1.73;;;18.10;74.00;19.10;100501.00;;;;5066552;28;20201;-48
2023/10/23 01:55:18;;;;;;;2.07;1.87;;;18.10;74.00;19.10;100491.00;;;;5066814;28;20284;-48
2023/10/23 01:57:43;;;;;;;2.33;1.50;;;18.10;74.00;19.10;100441.00;;;;5066836;28;20205;-48
2023/10/23 02:00:10;;;;;;;4.13;1.80;;;18.10;74.00;19.10;100504.00;;;;5067897;28;20216;-48
2023/10/23 02:02:36;;;;;;;1.63;1.53;;;18.10;73.90;19.10;100505.00;;;;5067992;28;20371;-48
2023/10/23 02:05:03;;;;;;;1.57;1.47;;;18.10;73.90;19.10;100503.00;;;;5066476;28;20691;-49
2023/10/23 02:07:29;;;;;;;1.80;1.70;;;18.10;73.90;19.10;100513.00;;;;5052537;28;20266;-48
2023/10/23 02:09:56;;;;;;;1.53;1.43;;;18.10;73.90;19.10;100510.00;;;;5054087;28;20190;-48
2023/10/23 02:12:23;;;;;;;1.57;1.43;;;18.10;73.90;19.10;100517.00;;;;5058333;28;20194;-48
2023/10/23 02:14:52;;;;;;;1.80;1.50;;;18.10;73.80;19.10;100522.00;;;;5034490;28;20232;-49
2023/10/23 02:17:22;;;;;;;1.60;1.50;;;18.00;73.80;19.10;100525.00;;;;5064882;28;20186;-49
2023/10/23 02:19:47;;;;;;;1.70;1.60;;;18.10;73.90;19.00;100528.00;;;;5051691;28;20172;-49
2023/10/23 02:22:14;;;;;;;1.57;1.50;;;18.00;73.70;19.10;100527.00;;;;5061629;28;20646;-49
2023/10/23 02:24:39;;;;;;;1.57;1.47;;;18.00;73.90;19.10;100529.00;;;;5067695;28;20196;-49
2023/10/23 02:27:05;;;;;;;1.67;1.57;;;18.00;73.70;19.00;100524.00;;;;5049513;28;20181;-49
2023/10/23 02:29:31;;;;;;;1.70;1.60;;;18.00;73.70;19.00;100529.00;;;;5052419;28;20817;-49
2023/10/23 02:31:56;;;;;;;2.50;1.60;;;18.00;73.70;19.00;100523.00;;;;5042345;28;20197;-49
2023/10/23 02:34:22;;;;;;;1.67;1.57;;;18.00;73.70;19.00;100524.00;;;;5067042;28;20567;-49
2023/10/23 02:36:48;;;;;;;1.50;1.40;;;18.00;73.60;19.00;100520.00;;;;5068197;28;20189;-49
2023/10/23 02:39:14;;;;;;;1.60;1.50;;;18.00;73.60;19.00;100521.00;;;;5052262;28;20173;-49
2023/10/23 02:41:40;;;;;;;2.50;1.70;;;18.00;73.60;19.00;100519.00;;;;5054182;28;20199;-49
2023/10/23 02:44:06;;;;;;;1.60;1.50;;;18.00;73.70;19.00;100518.00;;;;5053710;28;20184;-49
2023/10/23 02:46:35;;;;;;;1.70;1.60;;;18.00;73.70;19.00;100517.00;;;;5062934;28;20225;-48
2023/10/23 02:49:03;;;;;;;1.87;1.50;;;17.90;74.40;19.00;100524.00;;;;5067363;28;20516;-48
2023/10/23 02:51:29;;;;;;;1.73;1.60;;;18.00;73.80;19.00;100524.00;;;;5067173;28;20207;-52
2023/10/23 02:53:55;;;;;;;1.53;1.43;;;18.00;73.90;19.00;100523.00;;;;5067276;28;20186;-48
2023/10/23 02:56:20;;;;;;;2.00;1.40;;;18.00;73.80;19.00;100533.00;;;;5067570;28;20220;-48
2023/10/23 02:58:46;;;;;;;2.27;1.80;;;17.90;73.70;18.90;100522.00;;;;5067565;28;20606;-48
2023/10/23 03:01:20;;;;;;;1.60;1.50;;;18.00;73.70;18.90;100518.00;;;;5067507;28;20174;-48
2023/10/23 03:03:46;;;;;;;2.23;1.60;;;17.90;73.70;18.90;100523.00;;;;5059670;28;20182;-49
2023/10/23 03:06:12;;;;;;;2.10;1.60;;;18.00;73.80;18.90;100524.00;;;;5052694;28;20177;-49
2023/10/23 03:08:38;;;;;;;2.23;1.50;;;17.90;73.60;18.90;100512.00;;;;5053392;28;20178;-48
2023/10/23 03:11:05;;;;;;;1.80;1.50;;;17.90;73.60;18.90;100522.00;;;;5051496;28;20197;-48
2023/10/23 03:13:34;;;;;;;1.60;1.50;;;17.90;73.60;18.90;100515.00;;;;5058169;28;20281;-48
2023/10/23 03:16:00;;;;;;;1.93;1.70;;;17.90;73.60;18.90;100521.00;;;;5055476;28;20212;-48
2023/10/23 03:18:25;;;;;;;3.57;1.60;;;17.90;73.50;18.90;100524.00;;;;5068391;28;20178;-48
2023/10/23 03:20:51;;;;;;;1.60;1.50;;;17.90;73.70;18.90;100533.00;;;;5068141;28;20223;-49
2023/10/23 03:23:17;;;;;;;3.50;1.70;;;17.90;74.20;18.90;100534.00;;;;5054847;28;20269;-48
2023/10/23 03:25:43;;;;;;;3.43;1.73;;;17.90;74.20;18.90;100528.00;;;;5053853;28;20733;-49
2023/10/23 03:28:09;;;;;;;2.90;1.60;;;17.90;74.10;18.90;100534.00;;;;5060997;28;20185;-48
2023/10/23 03:30:35;;;;;;;3.30;1.80;;;17.90;73.90;18.80;100520.00;;;;5031340;28;20731;-49
2023/10/23 03:33:00;;;;;;;3.20;1.63;;;17.90;73.80;18.80;100521.00;;;;5058059;28;20255;-49
2023/10/23 03:35:26;;;;;;;3.93;1.63;;;17.90;73.80;18.80;100524.00;;;;5056339;28;20209;-48
2023/10/23 03:37:52;;;;;;;2.50;1.63;;;17.90;73.90;18.80;100525.00;;;;5068925;28;20232;-48
2023/10/23 03:40:18;;;;;;;1.77;1.57;;;17.90;73.90;18.80;100529.00;;;;5071905;28;20264;-49
2023/10/23 03:42:44;;;;;;;2.87;1.70;;;17.90;73.90;18.80;100525.00;;;;5071455;28;20212;-49
2023/10/23 03:45:10;;;;;;;2.07;1.50;;;17.90;73.90;18.80;100537.00;;;;5071273;28;20194;-49
2023/10/23 03:47:35;;;;;;;2.60;1.73;;;17.90;73.90;18.80;100543.00;;;;5066749;28;20185;-49
2023/10/23 03:50:01;;;;;;;1.93;1.60;;;17.90;73.80;18.80;100534.00;;;;5070879;28;20200;-48
2023/10/23 03:52:27;;;;;;;3.93;1.70;;;17.80;73.80;18.80;100532.00;;;;5063277;28;20721;-48
2023/10/23 03:54:52;;;;;;;1.70;1.60;;;17.90;73.90;18.80;100537.00;;;;5056516;28;20296;-49
2023/10/23 03:57:18;;;;;;;2.10;1.77;;;17.80;73.70;18.80;100543.00;;;;5071359;28;20176;-49
2023/10/23 03:59:44;;;;;;;4.70;1.80;;;17.80;73.70;18.80;100545.00;;;;5071034;28;20178;-48
2023/10/23 04:02:10;;;;;;;3.20;1.60;;;17.90;73.90;18.80;100534.00;;;;5071003;28;20295;-48
2023/10/23 04:04:35;;;;;;;2.23;1.70;;;17.80;73.70;18.70;100542.00;;;;5071311;28;20567;-48
2023/10/23 04:07:01;;;;;;;2.80;1.53;;;17.80;73.70;18.70;100540.00;;;;5061771;28;20177;-49
2023/10/23 04:09:30;;;;;;;1.77;1.33;;;17.80;73.70;18.70;100548.00;;;;5051845;28;20744;-48
2023/10/23 04:11:56;;;;;;;6.83;2.07;;;17.80;73.70;18.70;100551.00;;;;5051059;28;20281;-49
2023/10/23 04:14:22;;;;;;;3.93;1.67;;;17.80;73.70;18.60;100546.00;;;;5054698;28;20178;-49
2023/10/23 04:16:48;;;;;;;5.33;2.03;;;17.80;73.70;18.70;100550.00;;;;5056408;28;20166;-49
2023/10/23 04:19:13;;;;;;;11.03;1.70;;;17.70;73.60;18.70;100548.00;;;;5070392;28;20500;-49
2023/10/23 04:21:39;;;;;;;2.90;1.80;;;17.80;73.70;18.70;100558.00;;;;5058147;28;20273;-49
2023/10/23 04:24:07;;;;;;;4.03;1.80;;;17.80;73.70;18.70;100554.00;;;;5063889;28;20616;-49
2023/10/23 04:26:33;;;;;;;5.37;2.23;;;17.80;73.70;18.70;100547.00;;;;5051491;28;20205;-48
2023/10/23 04:28:58;;;;;;;5.57;1.80;;;17.80;73.70;18.60;100556.00;;;;5057544;28;20546;-49
2023/10/23 04:31:24;;;;;;;6.00;1.90;;;17.80;73.70;18.70;100538.00;;;;5069308;28;20188;-49
2023/10/23 04:33:50;;;;;;;2.20;1.60;;;17.70;73.70;18.60;100552.00;;;;5069759;28;20184;-48
2023/10/23 04:36:15;;;;;;;6.63;2.00;;;17.70;73.70;18.60;100550.00;;;;5069575;28;20213;-48
2023/10/23 04:38:41;;;;;;;4.40;1.80;;;17.70;73.70;18.60;100544.00;;;;5068955;28;20204;-48
2023/10/23 04:41:07;;;;;;;2.83;1.90;;;17.70;73.70;18.60;100549.00;;;;5070165;28;20204;-49
2023/10/23 04:43:34;;;;;;;3.80;2.10;;;17.70;73.60;18.60;100545.00;;;;5069591;28;20212;-48
2023/10/23 04:46:00;;;;;;;4.67;2.00;;;17.70;73.60;18.60;100546.00;;;;5069392;28;20745;-48
2023/10/23 04:48:26;;;;;;;4.23;1.90;;;17.70;73.60;18.60;100545.00;;;;5055214;28;20186;-48
2023/10/23 04:50:51;;;;;;;4.73;1.50;;;17.70;73.60;18.60;100555.00;;;;5049937;28;20194;-49
2023/10/23 04:53:18;;;;;;;1.73;1.57;;;17.60;73.50;18.60;100554.00;;;;5068987;28;20190;-48
2023/10/23 04:55:44;;;;;;;3.33;1.77;;;17.60;73.60;18.50;100555.00;;;;5068987;28;20233;-48
2023/10/23 04:58:10;;;;;;;2.70;1.70;;;17.60;73.50;18.50;100551.00;;;;5069472;28;20729;-49
2023/10/23 05:00:37;;;;;;;4.27;1.67;;;17.60;73.50;18.50;100551.00;;;;5069233;28;20173;-49
2023/10/23 05:03:06;;;;;;;1.70;1.60;;;17.60;73.50;18.50;100539.00;;;;5067991;28;20225;-49
2023/10/23 05:05:32;;;;;;;2.43;1.67;;;17.60;73.50;18.50;100535.00;;;;5073395;28;20260;-49
2023/10/23 05:07:58;;;;;;;2.33;1.80;;;17.60;73.50;18.50;100531.00;;;;5074004;28;20287;-48
2023/10/23 05:10:23;;;;;;;2.03;1.73;;;17.60;73.70;18.50;100531.00;;;;5071018;28;20180;-49
2023/10/23 05:12:49;;;;;;;1.93;1.70;;;17.60;73.60;18.50;100535.00;;;;5069191;28;20224;-48
2023/10/23 05:15:15;;;;;;;3.20;1.70;;;17.60;73.50;18.40;100534.00;;;;5068837;28;20214;-49
2023/10/23 05:17:41;;;;;;;5.27;1.70;;;17.60;73.50;18.50;100530.00;;;;5069368;28;20181;-48
2023/10/23 05:20:08;;;;;;;2.53;1.63;;;17.50;73.40;18.40;100537.00;;;;5069831;28;20178;-49
2023/10/23 05:22:33;;;;;;;2.70;1.67;;;17.50;73.30;18.40;100536.00;;;;5069448;28;20259;-48
2023/10/23 05:24:59;;;;;;;6.97;2.17;;;17.50;73.30;18.40;100528.00;;;;5065019;28;20182;-48
2023/10/23 05:27:25;;;;;;;1.87;1.63;;;17.50;73.30;18.40;100527.00;;;;5063612;28;20177;-48
2023/10/23 05:29:51;;;;;;;2.87;1.70;;;17.50;73.30;18.40;100532.00;;;;5068846;28;20185;-49
2023/10/23 05:32:17;;;;;;;1.73;1.60;;;17.50;73.40;18.40;100532.00;;;;5068963;28;20204;-49
2023/10/23 05:34:46;;;;;;;2.53;1.60;;;17.50;73.30;18.40;100527.00;;;;5069163;28;20270;-48
2023/10/23 05:37:12;;;;;;;2.53;1.70;;;17.50;73.30;18.40;100525.00;;;;5068590;28;20166;-49
2023/10/23 05:39:38;;;;;;;3.57;1.70;;;17.50;73.30;18.40;100535.00;;;;5069085;28;20255;-49
2023/10/23 05:42:04;;;;;;;2.63;1.60;;;17.40;73.30;18.40;100532.00;;;;5068557;28;20739;-49
2023/10/23 05:44:30;;;;;;;1.70;1.60;;;17.40;74.00;18.40;100543.00;;;;5068168;28;20189;-49
2023/10/23 05:46:55;;;;;;;2.13;1.80;;;17.40;73.30;18.30;100535.00;;;;5067660;28;20196;-49
2023/10/23 05:49:21;;;;;;;1.80;1.70;;;17.50;73.30;18.30;100526.00;;;;5068449;28;20174;-49
2023/10/23 05:51:47;;;;;;;1.90;1.60;;;17.50;73.30;18.30;100539.00;;;;5068646;28;20193;-49
2023/10/23 05:54:14;;;;;;;2.03;1.70;;;17.40;73.20;18.30;100546.00;;;;5068322;28;20789;-49
2023/10/23 05:56:40;;;;;;;1.70;1.60;;;17.40;73.20;18.30;100548.00;;;;5068781;28;20493;-48
2023/10/23 05:59:06;;;;;;;2.40;1.50;;;17.40;73.20;18.30;100547.00;;;;5069058;28;20174;-48
2023/10/23 06:01:32;;;;;;;1.60;1.50;;;17.40;73.20;18.30;100542.00;;;;5068619;28;20672;-48
2023/10/23 06:03:57;;;;;;;3.13;1.70;;;17.30;73.20;18.30;100544.00;;;;5067833;28;20238;-48
2023/10/23 06:06:23;;;;;;;1.80;1.70;;;17.30;73.20;18.30;100549.00;;;;5068141;28;20182;-48
2023/10/23 06:08:49;;;;;;;2.50;1.80;;;17.30;73.20;18.30;100544.00;;;;5067429;28;20205;-48
2023/10/23 06:11:15;;;;;;;1.70;1.60;;;17.30;73.20;18.20;100535.00;;;;5067794;28;20193;-49
2023/10/23 06:13:40;;;;;;;1.70;1.60;;;17.30;73.30;18.20;100536.00;;;;5068254;28;20185;-49
2023/10/23 06:16:07;;;;;;;2.20;1.80;;;17.30;73.20;18.20;100537.00;;;;5067948;28;20586;-49
2023/10/23 06:18:37;;;;;;;2.20;1.70;;;17.30;73.30;18.20;100537.00;;;;5068701;28;20178;-49
2023/10/23 06:21:06;;;;;;;1.70;1.50;;;17.30;73.30;18.20;100534.00;;;;5068166;28;20174;-48
2023/10/23 06:23:39;;;;;;;1.90;1.60;;;17.30;73.30;18.20;100546.00;;;;5068402;28;20201;-48
2023/10/23 06:26:08;;;;;;;1.90;1.70;;;17.30;73.30;18.20;100541.00;;;;5067914;28;20185;-48
2023/10/23 06:28:34;;;;;;;1.90;1.60;;;17.20;73.10;18.20;100545.00;;;;5068372;28;20184;-49
2023/10/23 06:31:07;;;;;;;2.33;1.70;;;17.20;73.20;18.20;100539.00;;;;5067842;28;20182;-49
2023/10/23 06:33:33;;;;;;;3.73;1.77;;;17.20;73.20;18.20;100538.00;;;;5066633;28;20302;-48
2023/10/23 06:35:59;;;;;;;1.83;1.60;;;17.20;73.20;18.10;100533.00;;;;5066320;28;20695;-49
2023/10/23 06:38:25;;;;;;;3.80;1.73;;;17.20;73.10;18.10;100538.00;;;;5068129;28;20209;-48
2023/10/23 06:40:51;;;;;;;1.73;1.50;;;17.20;73.10;18.10;100532.00;;;;5068176;28;20228;-48
2023/10/23 06:43:16;;;;;;;3.50;1.90;;;17.20;73.10;18.10;100544.00;;;;5066532;28;20193;-49
2023/10/23 06:45:42;;;;;;;1.70;1.60;;;17.20;73.20;18.10;100541.00;;;;5066794;28;20200;-49
2023/10/23 06:48:08;;;;;;;1.90;1.70;;;17.20;73.20;18.10;100543.00;;;;5060745;28;20652;-49
2023/10/23 06:50:34;;;;;;;1.70;1.60;;;17.20;73.10;18.10;100543.00;;;;5068356;28;20211;-49
2023/10/23 06:53:00;;;;;;;2.03;1.53;;;17.20;73.10;18.10;100543.00;;;;5068123;28;20251;-49
2023/10/23 06:55:27;;;;;;;2.63;1.50;;;17.10;72.90;18.10;100550.00;;;;5067335;28;20198;-49
2023/10/23 06:57:54;;;;;;;1.70;1.60;;;17.10;73.00;18.10;100542.00;;;;5068847;28;20186;-49
2023/10/23 07:00:20;;;;;;;1.80;1.60;;;17.10;73.00;18.10;100546.00;;;;5067985;28;20177;-49
2023/10/23 07:02:48;;;;;;;3.60;1.77;;;17.10;73.10;18.00;100545.00;;;;5071490;28;20280;-49
2023/10/23 07:05:14;;;;;;;2.93;1.87;;;17.10;73.10;18.00;100550.00;;;;5066935;28;20428;-48
2023/10/23 07:07:40;;;;;;;4.97;1.80;;;17.20;73.10;18.00;100538.00;;;;5054247;28;20264;-49
2023/10/23 07:10:06;;;;;;;6.07;2.00;;;17.20;73.10;18.00;100556.00;;;;5070983;28;20192;-49
2023/10/23 07:12:32;;;;;;;2.33;1.87;;;17.10;72.90;18.00;100557.00;;;;5052117;28;20198;-49
2023/10/23 07:14:58;;;;;;;3.20;1.60;;;17.20;73.10;18.00;100551.00;;;;5068894;28;20410;-49
2023/10/23 07:17:24;;;;;;;2.47;1.90;;;17.20;73.10;18.00;100556.00;;;;5071785;28;20185;-48
2023/10/23 07:19:50;;;;;;;2.43;1.80;;;17.20;73.20;18.00;100563.00;;;;5070977;28;20180;-49
2023/10/23 07:22:17;;;;;;;2.43;1.87;;;17.10;73.10;18.00;100571.00;;;;5070848;28;20194;-48
2023/10/23 07:24:43;;;;;;;2.33;1.70;;;17.10;73.20;18.00;100559.00;;;;5067501;28;20203;-48
2023/10/23 07:27:11;;;;;;;1.77;1.67;;;17.10;73.30;18.00;100557.00;;;;5057230;28;20261;-48
2023/10/23 07:29:37;;;;;;;3.00;1.70;;;17.10;74.10;18.00;100553.00;;;;5065700;28;20248;-49
2023/10/23 07:32:03;;;;;;;3.97;1.70;;;17.10;73.30;18.00;100551.00;;;;5071391;28;20617;-49
2023/10/23 07:34:29;;;;;;;2.00;1.70;;;17.10;73.40;18.00;100552.00;;;;5069318;28;20200;-49
2023/10/23 07:36:55;;;;;;;2.20;1.80;;;17.10;73.30;17.90;100554.00;;;;5070559;28;20178;-48
2023/10/23 07:39:21;;;;;;;3.00;1.60;;;17.10;73.30;18.00;100550.00;;;;5070744;28;20227;-48
2023/10/23 07:41:47;;;;;;;1.63;1.53;;;17.20;73.50;17.90;100559.00;;;;5070200;28;20208;-48
2023/10/23 07:44:13;;;;;;;2.70;1.97;;;17.10;73.30;17.90;100557.00;;;;5071105;28;20181;-49
2023/10/23 07:46:38;;;;;;;3.93;1.90;;;17.10;73.40;17.90;100552.00;;;;5070280;28;20201;-49
2023/10/23 07:49:04;;;;;;;3.10;1.80;;;17.00;73.20;17.90;100561.00;;;;5070975;28;20196;-48
2023/10/23 07:51:30;;;;;;;1.87;1.70;;;17.10;73.50;17.90;100550.00;;;;5062976;28;20280;-48
2023/10/23 07:53:56;;;;;;;2.70;1.53;;;17.10;73.80;17.90;100551.00;;;;5059902;28;20264;-47
2023/10/23 07:56:22;;;;;;;2.87;1.70;;;17.10;73.70;17.90;100554.00;;;;5063835;28;20316;-48
2023/10/23 07:58:47;;;;;;;2.17;1.77;;;17.10;73.80;17.90;100542.00;;;;5070311;28;20264;-47
2023/10/23 08:01:13;;;;;;;2.53;1.60;;;17.10;74.10;17.90;100547.00;;;;5057273;28;20174;-47
2023/10/23 08:03:39;;;;;;;1.70;1.60;;;17.10;74.30;17.90;100547.00;;;;5064959;28;20213;-47
2023/10/23 08:06:07;;;;;;;2.17;1.80;;;17.10;74.50;17.90;100538.00;;;;5068517;28;20646;-48
2023/10/23 08:08:36;;;;;;;1.67;1.57;;;17.10;74.70;17.90;100542.00;;;;5070484;28;20269;-47
2023/10/23 08:11:07;;;;;;;2.57;1.80;;;17.10;74.80;17.90;100559.00;;;;5058460;28;20188;-47
2023/10/23 08:13:33;;;;;;;4.67;1.90;;;17.10;74.90;17.90;100547.00;;;;5051416;28;20194;-47
2023/10/23 08:15:59;;;;;;;4.73;1.80;;;17.10;75.20;17.90;100543.00;;;;5061483;28;20638;-46
2023/10/23 08:18:25;;;;;;;6.27;1.90;;;17.10;75.40;17.90;100551.00;;;;5070134;28;20181;-46
2023/10/23 08:20:51;;;;;;;3.90;2.10;;;17.10;75.70;17.90;100549.00;;;;5066527;28;20640;-48
2023/10/23 08:23:16;;;;;;;5.93;1.93;;;17.10;75.80;17.90;100541.00;;;;5055802;28;20648;-47
2023/10/23 08:25:44;;;;;;;2.87;2.00;;;17.10;76.20;17.90;100532.00;;;;5058505;28;20284;-47
2023/10/23 08:28:10;;;;;;;2.83;1.83;;;17.10;76.20;17.90;100534.00;;;;5057026;28;20550;-47
2023/10/23 08:30:36;;;;;;;6.03;2.00;;;17.10;76.60;17.90;100529.00;;;;5068134;28;20173;-47
2023/10/23 08:33:03;;;;;;;3.53;1.90;;;17.20;77.00;17.90;100535.00;;;;5069461;28;20204;-47
2023/10/23 08:35:29;;;;;;;5.27;2.00;;;17.20;77.20;17.90;100529.00;;;;5069214;28;20769;-47
2023/10/23 08:37:55;;;;;;;4.60;1.80;;;17.20;77.40;17.90;100527.00;;;;5069655;28;20188;-46
2023/10/23 08:40:21;;;;;;;4.20;1.70;;;17.20;77.80;18.00;100502.00;;;;5069134;28;20173;-47
2023/10/23 08:42:48;;;;;;;3.30;1.90;;;17.20;77.80;17.90;100531.00;;;;5068914;28;20205;-48
2023/10/23 08:45:18;;;;;;;1.70;1.60;;;17.20;78.00;17.90;100522.00;;;;5069142;28;20193;-47
2023/10/23 08:47:44;;;;;;;5.30;2.00;;;17.20;77.80;17.90;100525.00;;;;5073437;28;20264;-47
2023/10/23 08:50:12;;;;;;;8.90;2.30;;;17.20;77.80;17.90;100528.00;;;;5072280;28;20208;-49
2023/10/23 08:52:53;;;;;;;9.10;2.13;;;17.20;78.00;17.90;100527.00;;;;5070567;28;20292;-48
2023/10/23 08:55:19;;;;;;;5.40;2.00;;;17.20;78.10;17.90;100524.00;;;;5067773;28;20721;-49
2023/10/23 08:57:52;;;;;;;7.93;2.40;;;17.20;78.40;17.90;100517.00;;;;5067971;28;20189;-50
2023/10/23 09:00:20;;;;;;;3.53;2.03;;;17.20;78.80;17.90;100514.00;;;;5063946;28;20632;-49
2023/10/23 09:02:46;;;;;;;6.83;2.13;;;17.20;78.90;17.90;100514.00;;;;5067028;28;20196;-49
2023/10/23 09:05:11;;;;;;;6.23;2.10;;;17.20;79.20;17.90;100514.00;;;;5068322;28;20679;-48
2023/10/23 09:07:38;;;;;;;6.43;2.20;;;17.20;79.10;17.90;100511.00;;;;5067599;28;20193;-49
2023/10/23 09:10:05;;;;;;;4.33;1.87;;;17.20;79.10;17.90;100504.00;;;;5067630;28;20679;-48
2023/10/23 09:12:34;;;;;;;5.07;2.10;;;17.10;79.00;17.90;100526.00;;;;5071856;28;20208;-51
2023/10/23 09:15:21;;;;;;;7.57;2.40;;;17.20;79.50;17.90;100515.00;;;;5072089;28;20193;-51
2023/10/23 09:17:49;;;;;;;4.83;2.03;;;17.20;79.00;17.90;100509.00;;;;5068926;28;20173;-51
2023/10/23 09:20:26;;;;;;;6.47;2.00;;;17.20;78.80;17.90;100500.00;;;;5068708;28;20177;-52
2023/10/23 09:22:52;;;;;;;3.57;2.00;;;17.20;78.50;17.90;100501.00;;;;5069302;28;20660;-51
2023/10/23 09:25:23;;;;;;;4.17;1.90;;;17.20;78.40;17.90;100511.00;;;;5067633;28;20267;-51
2023/10/23 09:27:49;;;;;;;8.57;2.10;;;17.20;78.20;17.90;100516.00;;;;5078717;28;20343;-51
2023/10/23 09:30:24;;;;;;;4.50;2.17;;;17.20;78.00;17.90;100511.00;;;;5071121;28;20272;-51
2023/10/23 09:32:53;;;;;;;4.23;2.10;;;17.20;78.00;17.90;100517.00;;;;5069047;28;20724;-51
2023/10/23 09:35:20;;;;;;;3.20;1.97;;;17.20;77.90;17.90;100506.00;;;;5068145;28;20606;-51
2023/10/23 09:37:46;;;;;;;3.10;2.00;;;17.20;77.80;17.90;100491.00;;;;5068618;28;20485;-51
2023/10/23 09:40:12;;;;;;;4.17;1.87;;;17.20;77.80;17.90;100503.00;;;;5068419;28;20174;-51
2023/10/23 09:42:39;;;;;;;2.33;2.07;;;17.20;77.70;17.90;100508.00;;;;5067981;28;20216;-51
2023/10/23 09:45:05;;;;;;;3.50;1.90;;;17.20;77.60;17.90;100506.00;;;;5056889;28;20189;-51
2023/10/23 09:47:32;;;;;;;3.87;1.70;;;17.20;77.70;17.90;100495.00;;;;5068557;28;20178;-51
2023/10/23 09:49:59;;;;;;;4.00;1.70;;;17.20;77.60;17.90;100500.00;;;;5048433;28;20808;-51
2023/10/23 09:52:26;;;;;;;3.90;2.07;;;17.20;77.50;17.90;100495.00;;;;5056320;28;20236;-51
2023/10/23 09:55:01;;;;;;;8.17;1.90;;;17.20;77.60;17.90;100486.00;;;;5066189;28;20205;-51
2023/10/23 09:57:38;;;;;;;7.07;2.20;;;17.20;78.10;17.90;100495.00;;;;5067031;28;20176;-51
2023/10/23 10:00:15;;;;;;;8.83;2.10;;;17.20;77.90;17.90;100488.00;;;;5065985;28;20313;-50
2023/10/23 10:02:54;;;;;;;6.67;2.20;;;17.20;78.60;17.90;100478.00;;;;5065380;28;20225;-49
2023/10/23 10:05:51;;;;;;;6.27;2.23;;;17.20;78.70;17.90;100483.00;;;;5067562;28;20652;-49
2023/10/23 10:08:19;;;;;;;3.43;2.00;;;17.20;78.70;17.90;100403.00;;;;5061396;28;20186;-50
2023/10/23 10:10:45;;;;;;;7.57;2.20;;;17.20;78.70;17.90;100471.00;;;;5046525;28;20194;-50
2023/10/23 10:13:13;;;;;;;5.63;1.73;;;17.20;78.80;17.90;100468.00;;;;5046910;28;20371;-51
2023/10/23 10:15:39;;;;;;;4.77;1.70;;;17.20;78.50;17.90;100472.00;;;;5047568;28;20198;-51
2023/10/23 10:18:05;;;;;;;2.87;1.93;;;17.20;78.20;17.90;100460.00;;;;5048094;28;20182;-51
2023/10/23 10:20:30;;;;;;;4.17;2.00;;;17.20;78.00;17.90;100467.00;;;;5047579;28;20174;-51
2023/10/23 10:23:07;;;;;;;5.77;1.97;;;17.20;77.80;17.90;100466.00;;;;5046730;28;20680;-50
2023/10/23 10:25:33;;;;;;;5.50;2.17;;;17.30;78.00;17.90;100463.00;;;;5047623;28;20178;-50
2023/10/23 10:28:03;;;;;;;13.60;2.43;;;17.30;78.00;18.00;100475.00;;;;5047109;28;20198;-52
2023/10/23 10:30:49;;;;;;;10.83;2.50;;;17.30;77.90;18.00;100475.00;;;;5046778;28;20184;-50
2023/10/23 10:33:31;;;;;;;9.93;2.50;;;17.30;77.90;18.00;100465.00;;;;5048182;28;20212;-51
2023/10/23 10:36:06;;;;;;;9.60;2.57;;;17.30;77.80;18.00;100471.00;;;;5052204;28;20712;-51
2023/10/23 10:38:33;;;;;;;11.33;2.43;;;17.30;77.80;18.00;100458.00;;;;5053331;28;20169;-51
2023/10/23 10:41:03;;;;;;;7.67;2.57;;;17.30;77.70;18.00;100452.00;;;;5056987;28;20608;-51
2023/10/23 10:43:39;;;;;;;9.20;2.33;;;17.40;77.80;18.00;100455.00;;;;5066151;28;20193;-52
2023/10/23 10:46:36;;;;;;;14.10;2.87;;;17.40;78.00;18.00;100448.00;;;;5071191;28;20429;-50